createdAt,value
2023-02-06T00:01:50.425Z,1.53
2023-02-06T00:04:20.594Z,1.51
2023-02-06T00:06:49.671Z,1.51
2023-02-06T00:09:18.116Z,1.47
2023-02-06T00:11:46.550Z,1.46
2023-02-06T00:14:14.986Z,1.45
2023-02-06T00:16:43.461Z,1.45
2023-02-06T00:19:11.890Z,1.43
2023-02-06T00:21:41.742Z,1.40
2023-02-06T00:24:10.220Z,1.39
2023-02-06T00:26:38.660Z,1.37
2023-02-06T00:29:07.175Z,1.35
2023-02-06T00:31:35.651Z,1.34
2023-02-06T00:34:05.008Z,1.33
2023-02-06T00:36:34.676Z,1.33
2023-02-06T00:39:05.158Z,1.30
2023-02-06T00:41:33.580Z,1.31
2023-02-06T00:44:01.986Z,1.29
2023-02-06T00:46:30.553Z,1.28
2023-02-06T00:48:58.962Z,1.27
2023-02-06T00:51:27.471Z,1.28
2023-02-06T00:53:55.873Z,1.30
2023-02-06T00:56:25.705Z,1.31
2023-02-06T00:58:54.142Z,1.34
2023-02-06T01:01:22.615Z,1.35
2023-02-06T01:03:51.062Z,1.36
2023-02-06T01:06:19.735Z,1.38
2023-02-06T01:08:49.051Z,1.35
2023-02-06T01:11:21.287Z,1.38
2023-02-06T01:13:51.371Z,1.38
2023-02-06T01:16:22.951Z,1.37
2023-02-06T01:18:51.956Z,1.36
2023-02-06T01:21:22.560Z,1.33
2023-02-06T01:23:53.731Z,1.32
2023-02-06T01:26:25.764Z,1.30
2023-02-06T01:28:56.680Z,1.28
2023-02-06T01:31:27.855Z,1.25
2023-02-06T01:33:57.480Z,1.23
2023-02-06T01:36:26.579Z,1.22
2023-02-06T01:38:55.560Z,1.19
2023-02-06T01:41:25.094Z,1.18
2023-02-06T01:44:15.862Z,1.15
2023-02-06T01:46:47.337Z,1.14
2023-02-06T01:49:21.605Z,1.12
2023-02-06T01:51:52.681Z,1.10
2023-02-06T01:54:21.396Z,1.08
2023-02-06T01:56:54.071Z,1.08
2023-02-06T01:59:25.715Z,1.06
2023-02-06T02:01:54.146Z,1.06
2023-02-06T02:04:27.664Z,1.07
2023-02-06T02:07:07.521Z,1.08
2023-02-06T02:09:36.431Z,1.09
2023-02-06T02:12:05.318Z,1.08
2023-02-06T02:14:35.827Z,1.09
2023-02-06T02:17:26.044Z,1.10
2023-02-06T02:20:47.550Z,1.08
2023-02-06T02:23:30.584Z,1.06
2023-02-06T02:26:45.680Z,1.03
2023-02-06T02:30:07.626Z,1.01
2023-02-06T02:33:32.708Z,0.97
2023-02-06T02:36:11.176Z,0.98
2023-02-06T02:38:53.480Z,0.98
2023-02-06T02:41:29.740Z,1.00
2023-02-06T02:44:06.058Z,1.03
2023-02-06T02:46:39.011Z,1.05
2023-02-06T02:49:13.034Z,1.09
2023-02-06T02:51:43.957Z,1.10
2023-02-06T02:54:12.653Z,1.11
2023-02-06T02:56:42.028Z,1.15
2023-02-06T02:59:16.617Z,1.16
2023-02-06T03:01:53.927Z,1.19
2023-02-06T03:04:27.017Z,1.20
2023-02-06T03:07:10.113Z,1.22
2023-02-06T03:09:51.476Z,1.23
2023-02-06T03:12:27.874Z,1.24
2023-02-06T03:15:01.014Z,1.26
2023-02-06T03:17:36.852Z,1.29
2023-02-06T03:20:09.387Z,1.31
2023-02-06T03:22:41.238Z,1.33
2023-02-06T03:25:17.408Z,1.35
2023-02-06T03:27:48.223Z,1.39
2023-02-06T03:30:19.398Z,1.42
2023-02-06T03:32:51.540Z,1.46
2023-02-06T03:35:24.075Z,1.48
2023-02-06T03:37:54.859Z,1.51
2023-02-06T03:40:24.098Z,1.53
2023-02-06T03:42:57.624Z,1.55
2023-02-06T03:45:31.535Z,1.57
2023-02-06T03:48:04.086Z,1.59
2023-02-06T03:50:34.616Z,1.60
2023-02-06T03:53:06.614Z,1.63
2023-02-06T03:55:36.218Z,1.63
2023-02-06T03:58:11.252Z,1.63
2023-02-06T04:00:42.386Z,1.61
2023-02-06T04:03:12.188Z,1.63
2023-02-06T04:05:41.304Z,1.62
2023-02-06T04:08:11.133Z,1.61
2023-02-06T04:10:39.534Z,1.57
2023-02-06T04:13:07.922Z,1.55
2023-02-06T04:15:36.735Z,1.53
2023-02-06T04:18:06.211Z,1.50
2023-02-06T04:20:40.942Z,1.48
2023-02-06T04:23:10.903Z,1.45
2023-02-06T04:25:39.402Z,1.42
2023-02-06T04:28:07.916Z,1.40
2023-02-06T04:30:36.444Z,1.41
2023-02-06T04:33:05.454Z,1.40
2023-02-06T04:35:34.072Z,1.39
2023-02-06T04:38:02.642Z,1.39
2023-02-06T04:40:32.477Z,1.37
2023-02-06T04:43:01.314Z,1.38
2023-02-06T04:45:29.765Z,1.39
2023-02-06T04:47:59.546Z,1.40
2023-02-06T04:50:31.319Z,1.41
2023-02-06T04:53:00.168Z,1.44
2023-02-06T04:55:28.964Z,1.44
2023-02-06T04:57:58.768Z,1.46
2023-02-06T05:00:27.337Z,1.45
2023-02-06T05:02:55.796Z,1.47
2023-02-06T05:05:24.246Z,1.48
2023-02-06T05:07:52.735Z,1.48
2023-02-06T05:10:21.428Z,1.48
2023-02-06T05:12:50.960Z,1.49
2023-02-06T05:15:21.039Z,1.49
2023-02-06T05:17:49.441Z,1.50
2023-02-06T05:20:18.254Z,1.50
2023-02-06T05:22:46.761Z,1.50
2023-02-06T05:25:15.244Z,1.50
2023-02-06T05:27:43.681Z,1.50
2023-02-06T05:30:14.446Z,1.48
2023-02-06T05:32:44.507Z,1.50
2023-02-06T05:35:13.061Z,1.48
2023-02-06T05:37:41.529Z,1.47
2023-02-06T05:40:12.181Z,1.43
2023-02-06T05:42:40.565Z,1.41
2023-02-06T05:45:10.812Z,1.36
2023-02-06T05:47:39.995Z,1.33
2023-02-06T05:50:10.920Z,1.29
2023-02-06T05:52:39.440Z,1.26
2023-02-06T05:55:09.664Z,1.24
2023-02-06T05:57:38.136Z,1.21
2023-02-06T06:00:08.942Z,1.19
2023-02-06T06:02:37.336Z,1.18
2023-02-06T06:05:06.804Z,1.17
2023-02-06T06:07:36.623Z,1.16
2023-02-06T06:10:06.877Z,1.15
2023-02-06T06:12:35.288Z,1.16
2023-02-06T06:15:03.758Z,1.14
2023-02-06T06:17:33.422Z,1.14
2023-02-06T06:20:01.891Z,1.14
2023-02-06T06:22:30.338Z,1.15
2023-02-06T06:25:00.394Z,1.14
2023-02-06T06:27:28.859Z,1.13
2023-02-06T06:29:57.235Z,1.14
2023-02-06T06:32:25.649Z,1.14
2023-02-06T06:34:54.027Z,1.17
2023-02-06T06:37:22.567Z,1.19
2023-02-06T06:39:50.982Z,1.22
2023-02-06T06:42:20.914Z,1.25
2023-02-06T06:44:49.371Z,1.30
2023-02-06T06:47:17.856Z,1.34
2023-02-06T06:49:46.247Z,1.40
2023-02-06T06:52:24.423Z,1.45
2023-02-06T06:54:53.654Z,1.49
2023-02-06T06:57:23.892Z,1.54
2023-02-06T06:59:52.710Z,1.57
2023-02-06T07:02:21.123Z,1.62
2023-02-06T07:04:49.568Z,1.66
2023-02-06T07:07:18.022Z,1.70
2023-02-06T07:09:46.575Z,1.73
2023-02-06T07:12:15.008Z,1.75
2023-02-06T07:14:44.887Z,1.76
2023-02-06T07:17:13.572Z,1.76
2023-02-06T07:19:42.072Z,1.78
2023-02-06T07:22:10.508Z,1.80
2023-02-06T07:24:38.960Z,1.83
2023-02-06T07:27:07.714Z,1.87
2023-02-06T07:29:36.302Z,1.94
2023-02-06T07:32:06.807Z,2.02
2023-02-06T07:34:36.669Z,2.13
2023-02-06T07:37:05.286Z,2.23
2023-02-06T07:39:33.913Z,2.32
2023-02-06T07:42:02.384Z,2.40
2023-02-06T07:44:30.751Z,2.49
2023-02-06T07:46:59.201Z,2.58
2023-02-06T07:49:29.044Z,2.68
2023-02-06T07:51:57.566Z,2.73
2023-02-06T07:54:26.186Z,2.78
2023-02-06T07:56:54.612Z,2.85
2023-02-06T07:59:23.597Z,2.91
2023-02-06T08:01:52.110Z,2.98
2023-02-06T08:04:20.886Z,3.04
2023-02-06T08:06:50.686Z,3.09
2023-02-06T08:09:19.159Z,3.14
2023-02-06T08:11:47.717Z,3.18
2023-02-06T08:14:16.178Z,3.25
2023-02-06T08:16:44.827Z,3.31
2023-02-06T08:19:13.355Z,3.36
2023-02-06T08:21:42.844Z,3.43
2023-02-06T08:24:13.843Z,3.47
2023-02-06T08:26:43.838Z,3.52
2023-02-06T08:29:14.479Z,3.60
2023-02-06T08:31:44.444Z,3.68
2023-02-06T08:34:15.799Z,3.78
2023-02-06T08:36:44.756Z,3.88
2023-02-06T08:39:15.995Z,3.93
2023-02-06T08:41:45.654Z,3.98
2023-02-06T08:44:18.234Z,4.02
2023-02-06T08:46:49.690Z,4.09
2023-02-06T08:49:23.680Z,4.12
2023-02-06T08:51:52.131Z,4.20
2023-02-06T08:54:24.873Z,4.26
2023-02-06T08:56:56.426Z,4.32
2023-02-06T08:59:25.230Z,4.36
2023-02-06T09:01:53.664Z,4.44
2023-02-06T09:04:22.403Z,4.53
2023-02-06T09:06:52.217Z,4.64
2023-02-06T09:09:22.126Z,4.75
2023-02-06T09:11:50.650Z,4.86
2023-02-06T09:14:20.396Z,4.91
2023-02-06T09:16:48.866Z,4.98
2023-02-06T09:19:17.402Z,5.02
2023-02-06T09:21:45.951Z,5.03
2023-02-06T09:24:14.466Z,5.10
2023-02-06T09:26:58.939Z,5.15
2023-02-06T09:29:29.591Z,5.18
2023-02-06T09:31:58.467Z,5.21
2023-02-06T09:34:27.389Z,5.26
2023-02-06T09:36:56.906Z,5.28
2023-02-06T09:39:26.354Z,5.31
2023-02-06T09:42:04.408Z,5.33
2023-02-06T09:44:36.932Z,5.38
2023-02-06T09:47:25.030Z,5.45
2023-02-06T09:49:58.996Z,5.49
2023-02-06T09:52:58.494Z,5.49
2023-02-06T09:55:34.622Z,5.47
2023-02-06T09:58:19.181Z,5.50
2023-02-06T10:00:54.548Z,5.61
2023-02-06T10:03:57.711Z,5.64
2023-02-06T10:06:29.147Z,5.71
2023-02-06T10:09:04.393Z,5.75
2023-02-06T10:11:48.050Z,5.89
2023-02-06T10:14:25.516Z,5.89
2023-02-06T10:17:01.063Z,5.86
2023-02-06T10:19:43.864Z,5.82
2023-02-06T10:22:19.814Z,5.85
2023-02-06T10:24:59.705Z,5.84
2023-02-06T10:27:28.162Z,5.84
2023-02-06T10:29:58.100Z,5.87
2023-02-06T10:32:39.850Z,5.95
2023-02-06T10:35:33.470Z,6.08
2023-02-06T10:38:47.114Z,6.19
2023-02-06T10:41:30.196Z,6.25
2023-02-06T10:44:06.216Z,6.23
2023-02-06T10:46:44.835Z,6.20
2023-02-06T10:49:24.116Z,6.22
2023-02-06T10:51:56.888Z,6.23
2023-02-06T10:54:31.503Z,6.30
2023-02-06T10:57:01.125Z,6.46
2023-02-06T10:59:35.013Z,6.61
2023-02-06T11:02:23.403Z,6.77
2023-02-06T11:05:00.938Z,6.93
2023-02-06T11:07:34.582Z,7.13
2023-02-06T11:10:03.337Z,7.40
2023-02-06T11:12:37.493Z,7.63
2023-02-06T11:15:17.791Z,7.93
2023-02-06T11:17:47.966Z,8.37
2023-02-06T11:20:24.160Z,8.78
2023-02-06T11:22:53.732Z,9.16
2023-02-06T11:25:29.170Z,9.59
2023-02-06T11:27:59.221Z,10.03
2023-02-06T11:30:36.450Z,10.38
2023-02-06T11:33:09.393Z,10.67
2023-02-06T11:35:48.753Z,11.01
2023-02-06T11:38:21.101Z,11.40
2023-02-06T11:41:00.726Z,11.77
2023-02-06T11:43:33.499Z,12.08
2023-02-06T11:46:17.794Z,12.27
2023-02-06T11:49:03.691Z,12.41
2023-02-06T11:51:49.530Z,12.48
2023-02-06T11:54:25.125Z,12.48
2023-02-06T11:56:59.782Z,12.37
2023-02-06T11:59:28.783Z,12.19
2023-02-06T12:02:01.422Z,11.95
2023-02-06T12:04:41.374Z,11.77
2023-02-06T12:07:18.088Z,11.61
2023-02-06T12:09:46.530Z,11.48
2023-02-06T12:12:24.031Z,11.33
2023-02-06T12:14:56.921Z,11.23
2023-02-06T12:17:29.798Z,11.14
2023-02-06T12:20:06.692Z,11.00
2023-02-06T12:22:47.157Z,10.80
2023-02-06T12:25:35.873Z,10.56
2023-02-06T12:28:11.698Z,10.38
2023-02-06T12:30:46.663Z,10.19
2023-02-06T12:33:22.261Z,10.00
2023-02-06T12:35:59.655Z,9.79
2023-02-06T12:38:42.626Z,9.61
2023-02-06T12:41:32.595Z,9.47
2023-02-06T12:44:11.640Z,9.40
2023-02-06T12:46:41.894Z,9.30
2023-02-06T12:49:21.622Z,9.17
2023-02-06T12:52:04.829Z,9.10
2023-02-06T12:54:40.424Z,9.07
2023-02-06T12:57:17.205Z,9.11
2023-02-06T13:00:14.497Z,9.20
2023-02-06T13:03:26.681Z,9.35
2023-02-06T13:06:01.791Z,9.54
2023-02-06T13:08:42.722Z,9.68
2023-02-06T13:11:28.872Z,9.83
2023-02-06T13:14:07.356Z,10.09
2023-02-06T13:16:56.205Z,10.39
2023-02-06T13:19:33.024Z,10.70
2023-02-06T13:22:47.035Z,11.01
2023-02-06T13:25:53.844Z,11.43
2023-02-06T13:28:44.591Z,11.65
2023-02-06T13:31:31.457Z,11.62
2023-02-06T13:34:07.124Z,11.46
2023-02-06T13:36:52.421Z,11.13
2023-02-06T13:39:29.711Z,10.74
2023-02-06T13:42:19.339Z,10.36
2023-02-06T13:44:47.908Z,9.99
2023-02-06T13:48:18.436Z,9.54
2023-02-06T13:51:20.175Z,9.19
2023-02-06T13:54:40.709Z,8.94
2023-02-06T13:57:33.885Z,8.74
2023-02-06T14:00:13.275Z,8.60
2023-02-06T14:02:45.463Z,8.46
2023-02-06T14:05:20.698Z,8.31
2023-02-06T14:08:06.191Z,8.18
2023-02-06T14:11:07.184Z,8.01
2023-02-06T14:13:51.826Z,7.87
2023-02-06T14:16:35.685Z,7.70
2023-02-06T14:19:09.618Z,7.62
2023-02-06T14:21:51.558Z,7.49
2023-02-06T14:24:44.121Z,7.35
2023-02-06T14:27:30.193Z,7.28
2023-02-06T14:30:11.438Z,7.21
2023-02-06T14:32:56.454Z,7.19
2023-02-06T14:35:56.818Z,7.15
2023-02-06T14:39:08.256Z,7.13
2023-02-06T14:41:39.775Z,7.18
2023-02-06T14:44:14.584Z,7.18
2023-02-06T14:46:46.653Z,7.20
2023-02-06T14:49:28.426Z,7.21
2023-02-06T14:51:57.004Z,7.20
2023-02-06T14:54:32.725Z,7.15
2023-02-06T14:57:04.419Z,7.11
2023-02-06T14:59:33.089Z,7.01
2023-02-06T15:02:15.287Z,6.88
2023-02-06T15:04:47.750Z,6.74
2023-02-06T15:07:26.631Z,6.82
2023-02-06T15:10:05.737Z,6.66
2023-02-06T15:12:35.750Z,6.54
2023-02-06T15:15:18.354Z,6.40
2023-02-06T15:18:04.712Z,6.28
2023-02-06T15:20:39.240Z,6.18
2023-02-06T15:23:18.133Z,6.07
2023-02-06T15:26:06.525Z,5.96
2023-02-06T15:28:38.776Z,5.89
2023-02-06T15:31:19.717Z,5.81
2023-02-06T15:33:53.244Z,5.76
2023-02-06T15:36:30.711Z,5.70
2023-02-06T15:39:00.709Z,5.64
2023-02-06T15:41:31.327Z,5.57
2023-02-06T15:44:05.200Z,5.50
2023-02-06T15:46:34.115Z,5.44
2023-02-06T15:49:04.343Z,5.38
2023-02-06T15:51:42.318Z,5.32
2023-02-06T15:54:22.681Z,5.26
2023-02-06T15:56:54.896Z,5.20
2023-02-06T15:59:27.296Z,5.17
2023-02-06T16:02:00.639Z,5.12
2023-02-06T16:04:35.161Z,5.06
2023-02-06T16:07:13.729Z,5.01
2023-02-06T16:09:54.865Z,4.97
2023-02-06T16:12:23.967Z,4.92
2023-02-06T16:14:59.568Z,4.85
2023-02-06T16:17:33.334Z,4.78
2023-02-06T16:20:05.542Z,4.73
2023-02-06T16:22:38.397Z,4.68
2023-02-06T16:25:25.873Z,4.61
2023-02-06T16:27:54.409Z,4.58
2023-02-06T16:30:30.312Z,4.48
2023-02-06T16:33:02.116Z,4.47
2023-02-06T16:35:32.009Z,4.43
2023-02-06T16:38:00.515Z,4.38
2023-02-06T16:40:29.055Z,4.37
2023-02-06T16:42:57.456Z,4.36
2023-02-06T16:45:28.460Z,4.30
2023-02-06T16:47:57.066Z,4.28
2023-02-06T16:50:25.766Z,4.31
2023-02-06T16:52:58.266Z,4.25
2023-02-06T16:55:28.946Z,4.21
2023-02-06T16:58:01.625Z,4.15
2023-02-06T17:00:32.782Z,4.11
2023-02-06T17:03:01.659Z,4.06
2023-02-06T17:05:33.617Z,4.03
2023-02-06T17:08:05.254Z,4.00
2023-02-06T17:10:34.379Z,4.02
2023-02-06T17:13:03.947Z,3.98
2023-02-06T17:15:32.987Z,3.95
2023-02-06T17:18:01.940Z,3.91
2023-02-06T17:20:35.833Z,3.88
2023-02-06T17:23:06.260Z,3.86
2023-02-06T17:25:36.290Z,3.82
2023-02-06T17:28:07.537Z,3.80
2023-02-06T17:30:38.338Z,3.77
2023-02-06T17:33:09.964Z,3.75
2023-02-06T17:35:41.051Z,3.73
2023-02-06T17:38:11.859Z,3.71
2023-02-06T17:40:41.373Z,3.68
2023-02-06T17:43:10.775Z,3.67
2023-02-06T17:45:40.683Z,3.64
2023-02-06T17:48:10.031Z,3.64
2023-02-06T17:50:41.344Z,3.62
2023-02-06T17:53:15.444Z,3.62
2023-02-06T17:55:46.016Z,3.74
2023-02-06T17:58:16.463Z,3.72
2023-02-06T18:00:47.901Z,3.71
2023-02-06T18:03:18.371Z,3.69
2023-02-06T18:05:56.650Z,3.67
2023-02-06T18:08:27.453Z,3.77
2023-02-06T18:10:59.024Z,3.75
2023-02-06T18:13:29.102Z,3.72
2023-02-06T18:16:00.978Z,3.68
2023-02-06T18:18:33.349Z,3.66
2023-02-06T18:21:03.331Z,3.63
2023-02-06T18:23:34.097Z,3.60
2023-02-06T18:26:05.304Z,3.57
2023-02-06T18:28:35.217Z,3.54
2023-02-06T18:31:04.991Z,3.59
2023-02-06T18:33:37.050Z,3.58
2023-02-06T18:36:07.728Z,3.56
2023-02-06T18:38:38.482Z,3.54
2023-02-06T18:41:29.994Z,3.53
2023-02-06T18:44:02.327Z,3.48
2023-02-06T18:46:32.913Z,3.47
2023-02-06T18:49:03.780Z,3.45
2023-02-06T18:51:34.053Z,3.43
2023-02-06T18:54:10.462Z,3.43
2023-02-06T18:56:41.500Z,3.39
2023-02-06T18:59:10.533Z,3.37
2023-02-06T19:01:40.888Z,3.36
2023-02-06T19:04:11.327Z,3.34
2023-02-06T19:06:43.585Z,3.32
2023-02-06T19:09:17.249Z,3.28
2023-02-06T19:11:48.665Z,3.26
2023-02-06T19:14:22.692Z,3.24
2023-02-06T19:16:55.530Z,3.22
2023-02-06T19:19:24.975Z,3.23
2023-02-06T19:21:55.686Z,3.23
2023-02-06T19:24:30.826Z,3.21
2023-02-06T19:27:02.332Z,3.19
2023-02-06T19:29:36.292Z,3.17
2023-02-06T19:32:10.965Z,3.15
2023-02-06T19:34:44.556Z,3.14
2023-02-06T19:37:17.593Z,3.14
2023-02-06T19:39:50.589Z,3.12
2023-02-06T19:42:21.134Z,3.12
2023-02-06T19:44:55.890Z,3.11
2023-02-06T19:47:27.401Z,3.11
2023-02-06T19:49:57.502Z,3.09
2023-02-06T19:52:29.037Z,3.09
2023-02-06T19:55:00.718Z,3.08
2023-02-06T19:57:31.364Z,3.05
2023-02-06T20:00:00.917Z,3.04
2023-02-06T20:02:32.552Z,3.03
2023-02-06T20:05:06.374Z,3.02
2023-02-06T20:07:38.303Z,3.00
2023-02-06T20:10:10.510Z,2.97
2023-02-06T20:12:41.136Z,2.98
2023-02-06T20:15:12.670Z,2.99
2023-02-06T20:17:42.894Z,2.99
2023-02-06T20:20:17.638Z,2.99
2023-02-06T20:22:48.369Z,2.98
2023-02-06T20:25:21.926Z,2.96
2023-02-06T20:27:53.182Z,2.96
2023-02-06T20:30:24.700Z,2.95
2023-02-06T20:32:56.346Z,2.90
2023-02-06T20:35:26.351Z,2.89
2023-02-06T20:37:55.936Z,2.86
2023-02-06T20:40:27.671Z,2.84
2023-02-06T20:42:57.001Z,2.83
2023-02-06T20:45:26.591Z,2.81
2023-02-06T20:47:59.418Z,2.80
2023-02-06T20:50:30.081Z,2.78
2023-02-06T20:53:00.259Z,2.75
2023-02-06T20:55:30.949Z,2.73
2023-02-06T20:58:00.808Z,2.72
2023-02-06T21:00:30.646Z,2.69
2023-02-06T21:02:59.851Z,2.67
2023-02-06T21:05:31.059Z,2.68
2023-02-06T21:08:01.445Z,2.66
2023-02-06T21:10:32.466Z,2.61
2023-02-06T21:13:00.996Z,2.63
2023-02-06T21:15:29.966Z,2.63
2023-02-06T21:17:58.723Z,2.65
2023-02-06T21:20:27.262Z,2.66
2023-02-06T21:22:56.203Z,2.67
2023-02-06T21:25:26.025Z,2.69
2023-02-06T21:27:56.239Z,2.69
2023-02-06T21:30:24.958Z,2.68
2023-02-06T21:32:53.490Z,2.68
2023-02-06T21:35:21.984Z,2.66
2023-02-06T21:37:50.570Z,2.64
2023-02-06T21:40:19.279Z,2.61
2023-02-06T21:42:47.734Z,2.57
2023-02-06T21:45:17.803Z,2.54
2023-02-06T21:47:46.253Z,2.51
2023-02-06T21:50:14.958Z,2.47
2023-02-06T21:52:43.508Z,2.43
2023-02-06T21:55:11.952Z,2.40
2023-02-06T21:57:40.328Z,2.38
2023-02-06T22:00:10.995Z,2.35
2023-02-06T22:02:40.840Z,2.31
2023-02-06T22:05:09.783Z,2.29
2023-02-06T22:07:39.289Z,2.26
2023-02-06T22:10:12.040Z,2.22
2023-02-06T22:12:40.496Z,2.19
2023-02-06T22:15:10.841Z,2.15
2023-02-06T22:17:40.718Z,2.11
2023-02-06T22:20:10.056Z,2.08
2023-02-06T22:22:38.801Z,2.05
2023-02-06T22:25:09.087Z,2.03
2023-02-06T22:27:38.969Z,2.01
2023-02-06T22:30:09.820Z,1.98
2023-02-06T22:32:40.980Z,1.97
2023-02-06T22:35:10.057Z,1.97
2023-02-06T22:37:38.472Z,1.96
2023-02-06T22:40:08.347Z,1.93
2023-02-06T22:42:36.899Z,1.92
2023-02-06T22:45:06.995Z,1.89
2023-02-06T22:47:35.414Z,1.87
2023-02-06T22:50:05.669Z,1.85
2023-02-06T22:52:52.186Z,1.83
2023-02-06T22:55:20.540Z,1.80
2023-02-06T22:57:48.970Z,1.78
2023-02-06T23:00:18.514Z,1.76
2023-02-06T23:02:47.641Z,1.74
2023-02-06T23:05:17.789Z,1.72
2023-02-06T23:07:46.229Z,1.67
2023-02-06T23:10:14.637Z,1.64
2023-02-06T23:12:43.066Z,1.61
2023-02-06T23:15:12.069Z,1.58
2023-02-06T23:17:40.504Z,1.58
2023-02-06T23:20:10.746Z,1.56
2023-02-06T23:22:40.495Z,1.55
2023-02-06T23:25:10.246Z,1.53
2023-02-06T23:27:38.614Z,1.53
2023-02-06T23:30:08.325Z,1.53
2023-02-06T23:32:36.726Z,1.51
2023-02-06T23:35:05.198Z,1.51
2023-02-06T23:37:33.629Z,1.50
2023-02-06T23:40:03.560Z,1.49
2023-02-06T23:42:32.339Z,1.48
2023-02-06T23:45:00.731Z,1.46
2023-02-06T23:47:29.150Z,1.46
2023-02-06T23:49:57.615Z,1.44
2023-02-06T23:52:25.969Z,1.43
2023-02-06T23:54:54.347Z,1.42
2023-02-06T23:57:24.226Z,1.40
2023-02-06T23:59:52.644Z,1.40
